Time;durP1;ratioP1;P1;durP2;ratioP2;P2;SDS_P1;SDS_P2;PMS_P1;PMS_P2;Temp;Humidity;BMP_temperature;BMP_pressure;BME280_temperature;BME280_humidity;BME280_pressure;Samples;Min_cycle;Max_cycle;Signal;HPM_P1;HPM_P2
2022/05/25 00:00:07;;;;;;;;;;;27.30;38.40;;;;;;5119369;28;1897;-35
2022/05/25 00:02:33;;;;;;;;;;;27.40;38.50;;;;;;5119638;28;1015;-36
2022/05/25 00:05:00;;;;;;;;;;;27.40;38.50;;;;;;5119123;28;937;-36
2022/05/25 00:07:27;;;;;;;;;;;27.40;38.50;;;;;;5118991;28;970;-35
2022/05/25 00:09:54;;;;;;;;;;;27.40;38.50;;;;;;5119197;28;1031;-39
2022/05/25 00:12:21;;;;;;;;;;;27.40;38.50;;;;;;5118116;28;1020;-36
2022/05/25 00:14:50;;;;;;;;;;;27.40;38.40;;;;;;5118460;28;999;-35
2022/05/25 00:17:17;;;;;;;;;;;27.40;38.40;;;;;;5117864;28;1015;-35
2022/05/25 00:20:01;;;;;;;;;;;27.40;38.50;;;;;;5118760;28;1905;-35
2022/05/25 00:22:29;;;;;;;;;;;27.40;38.50;;;;;;5117559;28;1334;-35
2022/05/25 00:24:56;;;;;;;;;;;27.40;38.50;;;;;;5118745;28;1069;-35
2022/05/25 00:27:23;;;;;;;;;;;27.40;38.50;;;;;;5118385;28;1015;-35
2022/05/25 00:29:51;;;;;;;;;;;27.40;38.50;;;;;;5118753;28;1023;-36
2022/05/25 00:32:18;;;;;;;;;;;27.40;38.50;;;;;;5117997;28;992;-36
2022/05/25 00:34:45;;;;;;;;;;;27.40;38.50;;;;;;5118488;28;1016;-36
2022/05/25 00:37:12;;;;;;;;;;;27.40;38.50;;;;;;5117555;28;863;-36
2022/05/25 00:39:40;;;;;;;;;;;27.40;38.50;;;;;;5117534;28;1906;-36
2022/05/25 00:42:07;;;;;;;;;;;27.40;38.50;;;;;;5118215;28;999;-35
2022/05/25 00:44:33;;;;;;;;;;;27.40;38.60;;;;;;5118624;28;1172;-35
2022/05/25 00:47:01;;;;;;;;;;;27.30;38.50;;;;;;5117544;28;982;-35
2022/05/25 00:49:30;;;;;;;;;;;27.40;38.50;;;;;;5117734;28;909;-35
2022/05/25 00:51:58;;;;;;;;;;;27.30;38.50;;;;;;5118625;28;1513;-36
2022/05/25 00:54:27;;;;;;;;;;;27.40;38.50;;;;;;5117614;28;889;-36
2022/05/25 00:56:55;;;;;;;;;;;27.40;38.50;;;;;;5118239;28;1046;-36
2022/05/25 00:59:26;;;;;;;;;;;27.40;38.50;;;;;;5118103;28;1034;-35
2022/05/25 01:01:53;;;;;;;;;;;27.40;38.50;;;;;;5118245;28;1982;-36
2022/05/25 01:04:21;;;;;;;;;;;27.30;38.50;;;;;;5118489;28;1101;-37
2022/05/25 01:06:59;;;;;;;;;;;27.30;38.50;;;;;;5118110;28;877;-35
2022/05/25 01:09:43;;;;;;;;;;;27.30;38.50;;;;;;5117854;28;964;-35
2022/05/25 01:12:17;;;;;;;;;;;27.40;38.60;;;;;;5117633;28;1020;-35
2022/05/25 01:14:55;;;;;;;;;;;27.40;38.50;;;;;;5117896;28;1015;-35
2022/05/25 01:17:24;;;;;;;;;;;27.40;38.60;;;;;;5118151;28;932;-36
2022/05/25 01:19:57;;;;;;;;;;;27.40;38.50;;;;;;5118349;28;1905;-35
2022/05/25 01:22:39;;;;;;;;;;;27.40;38.60;;;;;;5117618;28;1014;-36
2022/05/25 01:25:09;;;;;;;;;;;27.30;38.50;;;;;;5116947;28;1051;-35
2022/05/25 01:27:37;;;;;;;;;;;27.30;38.50;;;;;;5116488;28;928;-38
2022/05/25 01:30:08;;;;;;;;;;;27.40;38.60;;;;;;5117505;28;991;-35
2022/05/25 01:32:40;;;;;;;;;;;27.30;38.60;;;;;;5117867;28;1007;-35
2022/05/25 01:35:12;;;;;;;;;;;27.30;38.60;;;;;;5117101;28;1003;-35
2022/05/25 01:37:42;;;;;;;;;;;27.30;38.50;;;;;;5116274;28;982;-35
2022/05/25 01:40:11;;;;;;;;;;;27.40;38.60;;;;;;5117139;28;1902;-35
2022/05/25 01:42:41;;;;;;;;;;;27.40;38.50;;;;;;5118388;28;1556;-36
2022/05/25 01:45:10;;;;;;;;;;;27.30;38.60;;;;;;5118279;28;972;-36
2022/05/25 01:47:39;;;;;;;;;;;27.40;38.60;;;;;;5117312;28;1042;-35
2022/05/25 01:50:08;;;;;;;;;;;27.30;38.60;;;;;;5117978;28;984;-36
2022/05/25 01:52:36;;;;;;;;;;;27.30;38.50;;;;;;5118210;28;1771;-36
2022/05/25 01:55:05;;;;;;;;;;;27.30;38.50;;;;;;5117914;28;1015;-36
2022/05/25 01:57:33;;;;;;;;;;;27.30;38.50;;;;;;5117660;28;973;-35
2022/05/25 02:00:00;;;;;;;;;;;27.30;38.50;;;;;;5118312;28;1901;-35
2022/05/25 02:05:15;;;;;;;;;;;27.30;38.50;;;;;;5119703;28;607;-46
2022/05/25 02:07:50;;;;;;;;;;;27.30;38.60;;;;;;5121216;28;1011;-46
2022/05/25 02:10:33;;;;;;;;;;;27.30;38.50;;;;;;5121481;28;1023;-46
2022/05/25 02:13:07;;;;;;;;;;;27.30;38.50;;;;;;5121355;28;931;-46
2022/05/25 02:15:39;;;;;;;;;;;27.30;38.50;;;;;;5121663;28;916;-46
2022/05/25 02:18:10;;;;;;;;;;;27.30;38.60;;;;;;5121659;28;1776;-46
2022/05/25 02:20:42;;;;;;;;;;;27.30;38.50;;;;;;5120713;28;1989;-45
2022/05/25 02:23:14;;;;;;;;;;;27.30;38.60;;;;;;5118854;28;1205;-45
2022/05/25 02:25:44;;;;;;;;;;;27.30;38.50;;;;;;5120737;28;1121;-45
2022/05/25 02:28:13;;;;;;;;;;;27.30;38.50;;;;;;5120341;28;1000;-45
2022/05/25 02:30:41;;;;;;;;;;;27.30;38.50;;;;;;5120894;28;1015;-45
2022/05/25 02:33:13;;;;;;;;;;;27.30;38.50;;;;;;5122178;28;1113;-35
2022/05/25 02:35:41;;;;;;;;;;;27.30;38.50;;;;;;5120863;28;983;-35
2022/05/25 02:38:08;;;;;;;;;;;27.30;38.60;;;;;;5120334;28;996;-36
2022/05/25 02:40:35;;;;;;;;;;;27.30;38.60;;;;;;5120394;28;1898;-36
2022/05/25 02:43:03;;;;;;;;;;;27.30;38.60;;;;;;5121501;28;988;-35
2022/05/25 02:45:29;;;;;;;;;;;27.30;38.60;;;;;;5121144;28;996;-35
2022/05/25 02:47:56;;;;;;;;;;;27.30;38.50;;;;;;5120109;28;887;-35
2022/05/25 02:50:24;;;;;;;;;;;27.20;38.50;;;;;;5120229;28;1016;-36
2022/05/25 02:52:51;;;;;;;;;;;27.30;38.50;;;;;;5121175;28;943;-35
2022/05/25 02:55:18;;;;;;;;;;;27.30;38.50;;;;;;5120036;28;1540;-36
2022/05/25 02:57:45;;;;;;;;;;;27.30;38.50;;;;;;5120745;28;1015;-35
2022/05/25 03:00:12;;;;;;;;;;;27.30;38.60;;;;;;5120320;28;1992;-35
2022/05/25 03:02:39;;;;;;;;;;;27.30;38.60;;;;;;5120700;28;1007;-36
2022/05/25 03:05:07;;;;;;;;;;;27.30;38.50;;;;;;5121022;28;1031;-35
2022/05/25 03:07:35;;;;;;;;;;;27.30;38.50;;;;;;5121073;28;980;-35
2022/05/25 03:10:02;;;;;;;;;;;27.30;38.50;;;;;;5121157;28;1003;-36
2022/05/25 03:12:30;;;;;;;;;;;27.30;38.50;;;;;;5119426;28;929;-35
2022/05/25 03:14:56;;;;;;;;;;;27.20;38.40;;;;;;5120213;28;983;-35
2022/05/25 03:17:23;;;;;;;;;;;27.30;38.50;;;;;;5119153;28;945;-35
2022/05/25 03:19:51;;;;;;;;;;;27.30;38.50;;;;;;5119838;28;1016;-36
2022/05/25 03:22:18;;;;;;;;;;;27.30;38.50;;;;;;5118423;28;1921;-35
2022/05/25 03:24:46;;;;;;;;;;;27.20;38.50;;;;;;5120071;28;1017;-35
2022/05/25 03:27:13;;;;;;;;;;;27.30;38.50;;;;;;5120128;28;944;-36
2022/05/25 03:29:41;;;;;;;;;;;27.20;38.40;;;;;;5119961;28;944;-36
2022/05/25 03:32:08;;;;;;;;;;;27.20;38.50;;;;;;5119623;28;955;-35
2022/05/25 03:34:35;;;;;;;;;;;27.20;38.50;;;;;;5119802;28;1007;-35
2022/05/25 03:37:02;;;;;;;;;;;27.20;38.40;;;;;;5119041;28;939;-36
2022/05/25 03:39:29;;;;;;;;;;;27.20;38.40;;;;;;5119227;28;956;-37
2022/05/25 03:41:59;;;;;;;;;;;27.20;38.50;;;;;;5118906;28;1901;-35
2022/05/25 03:44:26;;;;;;;;;;;27.20;38.50;;;;;;5119072;28;982;-35
2022/05/25 03:46:53;;;;;;;;;;;27.20;38.40;;;;;;5118400;28;1062;-36
2022/05/25 03:49:20;;;;;;;;;;;27.20;39.60;;;;;;5117416;28;1055;-36
2022/05/25 03:51:47;;;;;;;;;;;27.20;38.50;;;;;;5118324;28;988;-36
2022/05/25 03:54:13;;;;;;;;;;;27.20;38.40;;;;;;5118884;28;918;-35
2022/05/25 03:56:40;;;;;;;;;;;27.20;38.50;;;;;;5118737;28;1039;-36
2022/05/25 03:59:08;;;;;;;;;;;27.20;38.50;;;;;;5119193;28;1239;-35
2022/05/25 04:01:36;;;;;;;;;;;27.20;38.40;;;;;;5119211;28;1984;-35
2022/05/25 04:04:03;;;;;;;;;;;27.20;38.50;;;;;;5119645;28;976;-38
2022/05/25 04:06:30;;;;;;;;;;;27.20;38.30;;;;;;5119056;28;972;-37
2022/05/25 04:08:56;;;;;;;;;;;27.20;38.30;;;;;;5118699;28;991;-35
2022/05/25 04:11:23;;;;;;;;;;;27.20;38.40;;;;;;5118504;28;880;-35
2022/05/25 04:13:50;;;;;;;;;;;27.20;38.40;;;;;;5117344;28;984;-36
2022/05/25 04:16:18;;;;;;;;;;;27.20;38.40;;;;;;5115876;28;1085;-35
2022/05/25 04:18:45;;;;;;;;;;;27.20;38.50;;;;;;5117896;28;1007;-36
2022/05/25 04:21:12;;;;;;;;;;;27.20;38.50;;;;;;5118768;28;1909;-36
2022/05/25 04:23:39;;;;;;;;;;;27.20;38.50;;;;;;5117567;28;1856;-35
2022/05/25 04:26:06;;;;;;;;;;;27.20;38.50;;;;;;5118324;28;961;-35
2022/05/25 04:28:33;;;;;;;;;;;27.20;38.60;;;;;;5118022;28;955;-35
2022/05/25 04:30:59;;;;;;;;;;;27.20;38.60;;;;;;5117629;28;1000;-35
2022/05/25 04:33:29;;;;;;;;;;;27.20;38.60;;;;;;5117955;28;936;-35
2022/05/25 04:35:56;;;;;;;;;;;27.20;38.60;;;;;;5117474;28;1039;-36
2022/05/25 04:38:23;;;;;;;;;;;27.20;38.50;;;;;;5116305;28;996;-37
2022/05/25 04:40:50;;;;;;;;;;;27.20;38.50;;;;;;5117039;28;1992;-36
2022/05/25 04:43:17;;;;;;;;;;;27.10;38.50;;;;;;5117816;28;975;-36
2022/05/25 04:45:45;;;;;;;;;;;27.20;38.60;;;;;;5117119;28;924;-36
2022/05/25 04:48:13;;;;;;;;;;;27.10;38.60;;;;;;5117475;28;1018;-35
2022/05/25 04:50:42;;;;;;;;;;;27.10;38.60;;;;;;5117563;28;928;-36
2022/05/25 04:53:10;;;;;;;;;;;27.10;38.60;;;;;;5117812;28;943;-36
2022/05/25 04:58:22;;;;;;;;;;;27.10;38.60;;;;;;5116800;28;616;-36
2022/05/25 05:00:48;;;;;;;;;;;27.10;38.70;;;;;;5116387;28;1917;-46
2022/05/25 05:03:15;;;;;;;;;;;27.10;38.60;;;;;;5115257;28;975;-46
2022/05/25 05:05:44;;;;;;;;;;;27.10;38.70;;;;;;5116001;28;943;-45
2022/05/25 05:08:11;;;;;;;;;;;27.10;38.70;;;;;;5115818;28;971;-46
2022/05/25 05:10:39;;;;;;;;;;;27.10;38.50;;;;;;5116077;28;1039;-46
2022/05/25 05:13:07;;;;;;;;;;;27.20;38.70;;;;;;5115649;28;999;-46
2022/05/25 05:15:34;;;;;;;;;;;27.20;38.60;;;;;;5114833;28;1029;-46
2022/05/25 05:18:01;;;;;;;;;;;27.20;38.70;;;;;;5114895;28;979;-46
2022/05/25 05:20:28;;;;;;;;;;;27.20;38.60;;;;;;5113242;28;913;-46
2022/05/25 05:22:56;;;;;;;;;;;27.20;38.70;;;;;;5112574;28;1914;-45
2022/05/25 05:25:23;;;;;;;;;;;27.20;38.60;;;;;;5114133;28;1016;-45
2022/05/25 05:27:50;;;;;;;;;;;27.20;38.60;;;;;;5113467;28;1046;-46
2022/05/25 05:30:19;;;;;;;;;;;27.20;38.60;;;;;;5113786;28;976;-46
2022/05/25 05:32:46;;;;;;;;;;;27.20;38.70;;;;;;5114034;28;1032;-45
2022/05/25 05:35:13;;;;;;;;;;;27.20;38.70;;;;;;5114858;28;965;-47
2022/05/25 05:37:41;;;;;;;;;;;27.20;38.80;;;;;;5113664;28;936;-45
2022/05/25 05:40:11;;;;;;;;;;;27.20;38.80;;;;;;5115709;28;1003;-46
2022/05/25 05:42:39;;;;;;;;;;;27.20;38.80;;;;;;5115494;28;1988;-45
2022/05/25 05:45:07;;;;;;;;;;;27.10;38.70;;;;;;5120301;28;1155;-45
2022/05/25 05:47:37;;;;;;;;;;;27.20;38.70;;;;;;5119190;28;1024;-45
2022/05/25 05:50:04;;;;;;;;;;;27.20;38.70;;;;;;5117019;28;1121;-45
2022/05/25 05:52:31;;;;;;;;;;;27.20;38.60;;;;;;5118179;28;977;-45
2022/05/25 05:54:58;;;;;;;;;;;27.20;38.60;;;;;;5117073;28;1040;-48
2022/05/25 05:57:26;;;;;;;;;;;27.20;38.50;;;;;;5117227;28;933;-47
2022/05/25 05:59:53;;;;;;;;;;;27.20;38.70;;;;;;5117775;28;1149;-42
2022/05/25 06:02:20;;;;;;;;;;;27.20;39.80;;;;;;5118101;28;1917;-44
2022/05/25 06:04:48;;;;;;;;;;;27.20;38.50;;;;;;5117838;28;1033;-44
2022/05/25 06:07:14;;;;;;;;;;;27.20;38.90;;;;;;5116262;28;884;-44
2022/05/25 06:09:41;;;;;;;;;;;27.10;38.80;;;;;;5117542;28;988;-44
2022/05/25 06:12:08;;;;;;;;;;;27.20;38.80;;;;;;5115395;28;932;-44
2022/05/25 06:14:36;;;;;;;;;;;27.10;39.10;;;;;;5117331;28;961;-44
2022/05/25 06:19:47;;;;;;;;;;;27.10;38.70;;;;;;5116952;28;974;-42
2022/05/25 06:22:15;;;;;;;;;;;27.10;38.90;;;;;;5116626;28;1906;-42
2022/05/25 06:24:43;;;;;;;;;;;27.10;38.90;;;;;;5109992;28;1004;-41
2022/05/25 06:27:11;;;;;;;;;;;27.20;38.90;;;;;;5117269;28;971;-44
2022/05/25 06:29:41;;;;;;;;;;;27.20;39.00;;;;;;5117258;28;1031;-41
2022/05/25 06:32:08;;;;;;;;;;;27.10;39.00;;;;;;5117268;28;904;-40
2022/05/25 06:34:36;;;;;;;;;;;27.10;39.20;;;;;;5117019;28;942;-41
2022/05/25 06:37:03;;;;;;;;;;;27.10;38.90;;;;;;5117097;28;1035;-41
2022/05/25 06:39:34;;;;;;;;;;;27.10;38.90;;;;;;5117755;28;1797;-42
2022/05/25 06:42:01;;;;;;;;;;;27.20;39.00;;;;;;5116857;28;1910;-42
2022/05/25 06:44:27;;;;;;;;;;;27.20;39.20;;;;;;5118669;28;936;-42
2022/05/25 06:46:55;;;;;;;;;;;27.20;39.40;;;;;;5118518;28;987;-42
2022/05/25 06:49:22;;;;;;;;;;;27.20;39.20;;;;;;5117586;28;1004;-42
2022/05/25 06:51:49;;;;;;;;;;;27.20;39.20;;;;;;5117282;28;881;-44
2022/05/25 06:54:16;;;;;;;;;;;27.20;39.20;;;;;;5117922;28;1227;-43
2022/05/25 06:56:43;;;;;;;;;;;27.20;39.40;;;;;;5116367;28;940;-43
2022/05/25 06:59:10;;;;;;;;;;;27.20;39.40;;;;;;5117251;28;1254;-43
2022/05/25 07:01:37;;;;;;;;;;;27.20;39.50;;;;;;5117209;28;1901;-43
2022/05/25 07:04:06;;;;;;;;;;;27.20;39.30;;;;;;5116855;28;1000;-42
2022/05/25 07:06:32;;;;;;;;;;;27.20;39.40;;;;;;5117879;28;936;-43
2022/05/25 07:08:59;;;;;;;;;;;27.20;39.40;;;;;;5117865;28;1020;-42
2022/05/25 07:11:26;;;;;;;;;;;27.20;39.30;;;;;;5118041;28;952;-43
2022/05/25 07:13:54;;;;;;;;;;;27.20;39.30;;;;;;5117293;27;1426;-43
2022/05/25 07:16:21;;;;;;;;;;;27.20;39.40;;;;;;5116334;28;1023;-43
2022/05/25 07:18:49;;;;;;;;;;;27.20;39.40;;;;;;5117629;28;984;-42
2022/05/25 07:21:17;;;;;;;;;;;27.20;39.30;;;;;;5116853;28;1028;-42
2022/05/25 07:23:45;;;;;;;;;;;27.20;39.50;;;;;;5117953;28;1902;-43
2022/05/25 07:26:12;;;;;;;;;;;27.20;39.50;;;;;;5117602;28;1023;-43
2022/05/25 07:28:40;;;;;;;;;;;27.10;39.40;;;;;;5115918;28;1012;-42
2022/05/25 07:31:09;;;;;;;;;;;27.20;39.30;;;;;;5117652;28;963;-43
2022/05/25 07:33:36;;;;;;;;;;;27.20;39.20;;;;;;5117446;28;936;-43
2022/05/25 07:36:03;;;;;;;;;;;27.20;39.50;;;;;;5115430;28;1017;-42
2022/05/25 07:38:31;;;;;;;;;;;27.20;39.30;;;;;;5115125;28;1043;-43
2022/05/25 07:40:59;;;;;;;;;;;27.10;39.40;;;;;;5116240;28;941;-43
2022/05/25 07:43:26;;;;;;;;;;;27.10;39.30;;;;;;5115007;28;1909;-42
2022/05/25 07:45:53;;;;;;;;;;;27.20;39.40;;;;;;5116515;28;982;-43
2022/05/25 07:48:20;;;;;;;;;;;27.20;39.40;;;;;;5117090;28;988;-43
2022/05/25 07:50:47;;;;;;;;;;;27.20;39.50;;;;;;5117008;28;991;-42
2022/05/25 07:56:03;;;;;;;;;;;27.20;39.50;;;;;;5116793;28;915;-44
2022/05/25 07:58:30;;;;;;;;;;;27.20;39.50;;;;;;5117624;28;1004;-44
2022/05/25 08:00:58;;;;;;;;;;;27.20;39.50;;;;;;5116347;28;1264;-44
2022/05/25 08:06:15;;;;;;;;;;;27.10;39.40;;;;;;5039682;28;1082;-44
2022/05/25 08:08:43;;;;;;;;;;;27.10;39.50;;;;;;5116250;28;980;-45
2022/05/25 08:11:13;;;;;;;;;;;27.10;39.40;;;;;;5117080;28;948;-44
2022/05/25 08:13:44;;;;;;;;;;;27.10;39.50;;;;;;5116750;28;957;-44
2022/05/25 08:16:11;;;;;;;;;;;27.10;39.40;;;;;;5116311;28;1432;-44
2022/05/25 08:18:38;;;;;;;;;;;27.10;39.50;;;;;;5116439;28;933;-44
2022/05/25 08:21:05;;;;;;;;;;;27.10;39.30;;;;;;5115585;28;1052;-44
2022/05/25 08:23:32;;;;;;;;;;;27.10;39.50;;;;;;5116937;28;1985;-44
2022/05/25 08:25:59;;;;;;;;;;;27.10;39.40;;;;;;5116741;28;976;-44
2022/05/25 08:28:27;;;;;;;;;;;27.10;39.40;;;;;;5114686;28;956;-46
2022/05/25 08:30:54;;;;;;;;;;;27.10;39.60;;;;;;5115275;28;991;-45
2022/05/25 08:33:21;;;;;;;;;;;27.10;39.40;;;;;;5116012;28;979;-44
2022/05/25 08:35:48;;;;;;;;;;;27.10;39.50;;;;;;5116055;28;964;-44
2022/05/25 08:38:15;;;;;;;;;;;27.10;39.50;;;;;;5114263;28;898;-44
2022/05/25 08:40:43;;;;;;;;;;;27.10;39.40;;;;;;5116012;28;916;-44
2022/05/25 08:43:14;;;;;;;;;;;27.10;39.40;;;;;;5114637;28;1911;-44
2022/05/25 08:45:44;;;;;;;;;;;27.10;39.40;;;;;;5115286;28;1003;-44
2022/05/25 08:48:11;;;;;;;;;;;27.10;39.50;;;;;;5114323;28;964;-44
2022/05/25 08:50:38;;;;;;;;;;;27.10;39.40;;;;;;5114067;28;944;-44
2022/05/25 08:53:08;;;;;;;;;;;27.10;39.50;;;;;;5115305;28;980;-44
2022/05/25 08:55:45;;;;;;;;;;;27.10;40.50;;;;;;5114449;28;925;-44
2022/05/25 08:58:13;;;;;;;;;;;27.10;39.40;;;;;;5112452;28;933;-44
2022/05/25 09:00:40;;;;;;;;;;;27.10;39.30;;;;;;5115230;28;1058;-44
2022/05/25 09:03:12;;;;;;;;;;;27.10;39.40;;;;;;5116838;28;1988;-44
2022/05/25 09:05:40;;;;;;;;;;;27.10;39.40;;;;;;5116097;28;1103;-44
2022/05/25 09:08:14;;;;;;;;;;;27.10;39.30;;;;;;5116128;28;992;-44
2022/05/25 09:10:43;;;;;;;;;;;27.10;39.30;;;;;;5114723;28;1019;-44
2022/05/25 09:13:19;;;;;;;;;;;27.10;39.40;;;;;;5114760;28;1086;-44
2022/05/25 09:18:33;;;;;;;;;;;27.20;39.50;;;;;;5112629;28;1486;-44
2022/05/25 09:21:01;;;;;;;;;;;27.10;39.30;;;;;;5115433;28;959;-44
2022/05/25 09:23:29;;;;;;;;;;;27.10;39.30;;;;;;5114302;28;1914;-44
2022/05/25 09:25:56;;;;;;;;;;;27.10;39.40;;;;;;5115307;28;1004;-44
2022/05/25 09:28:29;;;;;;;;;;;27.10;39.40;;;;;;5114928;28;908;-44
2022/05/25 09:30:57;;;;;;;;;;;27.10;39.40;;;;;;5115237;28;968;-44
2022/05/25 09:33:30;;;;;;;;;;;27.10;39.40;;;;;;5114879;28;942;-44
2022/05/25 09:36:00;;;;;;;;;;;27.10;39.40;;;;;;5115130;28;982;-44
2022/05/25 09:38:35;;;;;;;;;;;27.10;39.30;;;;;;5112809;28;984;-44
2022/05/25 09:41:04;;;;;;;;;;;27.10;39.30;;;;;;5114911;28;943;-44
2022/05/25 09:43:31;;;;;;;;;;;27.10;39.20;;;;;;5113569;28;1971;-45
2022/05/25 09:45:59;;;;;;;;;;;27.10;39.20;;;;;;5113229;28;984;-44
2022/05/25 09:48:30;;;;;;;;;;;27.10;39.10;;;;;;5112959;28;997;-44
2022/05/25 09:51:01;;;;;;;;;;;27.10;39.30;;;;;;5113834;28;1048;-44
2022/05/25 09:53:34;;;;;;;;;;;27.10;39.20;;;;;;5113144;28;849;-44
2022/05/25 09:56:04;;;;;;;;;;;27.10;39.20;;;;;;5111304;28;1023;-44
2022/05/25 09:58:32;;;;;;;;;;;27.10;39.10;;;;;;5113847;28;980;-44
2022/05/25 10:01:02;;;;;;;;;;;27.10;39.10;;;;;;5113810;28;1342;-44
2022/05/25 10:03:35;;;;;;;;;;;27.10;39.10;;;;;;5115098;28;1906;-43
2022/05/25 10:06:16;;;;;;;;;;;27.10;39.10;;;;;;5114858;28;1004;-44
2022/05/25 10:08:44;;;;;;;;;;;27.10;39.20;;;;;;5114513;28;953;-44
2022/05/25 10:11:27;;;;;;;;;;;27.10;39.20;;;;;;5114219;28;1068;-45
2022/05/25 10:13:55;;;;;;;;;;;27.10;39.10;;;;;;5114125;28;942;-44
2022/05/25 10:16:23;;;;;;;;;;;27.10;39.20;;;;;;5114572;28;1003;-45
2022/05/25 10:18:50;;;;;;;;;;;27.20;39.20;;;;;;5114782;28;941;-44
2022/05/25 10:21:25;;;;;;;;;;;27.20;39.20;;;;;;5113613;28;857;-44
2022/05/25 10:23:52;;;;;;;;;;;27.20;39.10;;;;;;5112807;28;1918;-44
2022/05/25 10:26:26;;;;;;;;;;;27.10;39.10;;;;;;5115307;28;992;-45
2022/05/25 10:28:55;;;;;;;;;;;27.10;39.10;;;;;;5118964;28;980;-45
2022/05/25 10:37:16;;;;;;;;;;;27.10;39.30;;;;;;5115162;28;772;-45
2022/05/25 10:39:43;;;;;;;;;;;27.20;40.60;;;;;;5114920;28;1039;-45
2022/05/25 10:42:15;;;;;;;;;;;27.10;40.30;;;;;;5116703;28;866;-44
2022/05/25 10:44:47;;;;;;;;;;;27.10;39.10;;;;;;5116198;28;1897;-44
2022/05/25 10:47:21;;;;;;;;;;;27.10;39.30;;;;;;5116987;28;1121;-45
2022/05/25 10:49:47;;;;;;;;;;;27.10;39.20;;;;;;5116332;28;992;-44
2022/05/25 10:52:21;;;;;;;;;;;27.20;39.20;;;;;;5114723;28;984;-45
2022/05/25 10:54:50;;;;;;;;;;;27.20;39.20;;;;;;5115003;28;985;-44
2022/05/25 10:57:23;;;;;;;;;;;27.20;39.00;;;;;;5114515;28;916;-45
2022/05/25 10:59:53;;;;;;;;;;;27.20;39.10;;;;;;5115966;28;1027;-43
2022/05/25 11:02:25;;;;;;;;;;;27.20;39.10;;;;;;5116293;28;940;-44
2022/05/25 11:05:10;;;;;;;;;;;27.20;39.10;;;;;;5111942;28;1905;-44
2022/05/25 11:07:38;;;;;;;;;;;27.20;40.50;;;;;;5109900;28;1004;-44
2022/05/25 11:10:25;;;;;;;;;;;27.20;39.00;;;;;;5116505;28;1086;-44
2022/05/25 11:12:57;;;;;;;;;;;27.20;39.10;;;;;;5117462;28;996;-44
2022/05/25 11:15:28;;;;;;;;;;;27.20;38.90;;;;;;5106792;27;1711;-44
2022/05/25 11:18:09;;;;;;;;;;;27.20;39.00;;;;;;5097160;28;1654;-44
2022/05/25 11:20:40;;;;;;;;;;;27.20;39.00;;;;;;5113180;28;1863;-44
2022/05/25 11:23:22;;;;;;;;;;;27.20;38.90;;;;;;5114794;28;1909;-44
2022/05/25 11:25:54;;;;;;;;;;;27.20;38.80;;;;;;5111691;28;1195;-44
2022/05/25 11:28:28;;;;;;;;;;;27.20;38.80;;;;;;5114623;28;1032;-44
2022/05/25 11:31:10;;;;;;;;;;;27.20;38.90;;;;;;5113762;28;932;-44
2022/05/25 11:33:46;;;;;;;;;;;27.20;38.90;;;;;;5114978;28;996;-46
2022/05/25 11:36:18;;;;;;;;;;;27.20;38.90;;;;;;5116071;28;988;-44
2022/05/25 11:38:52;;;;;;;;;;;27.20;39.00;;;;;;5112962;28;1073;-44
2022/05/25 11:41:29;;;;;;;;;;;27.20;38.80;;;;;;5114443;28;1008;-44
2022/05/25 11:44:14;;;;;;;;;;;27.20;38.90;;;;;;5114446;28;1906;-44
2022/05/25 11:46:42;;;;;;;;;;;27.30;38.90;;;;;;5115892;28;980;-47
2022/05/25 11:49:26;;;;;;;;;;;27.20;38.70;;;;;;5116298;28;1007;-45
2022/05/25 11:51:56;;;;;;;;;;;27.20;38.70;;;;;;5114423;28;1610;-44
2022/05/25 11:54:30;;;;;;;;;;;27.20;38.80;;;;;;5113603;28;992;-44
2022/05/25 11:57:03;;;;;;;;;;;27.20;38.80;;;;;;5113012;28;940;-44
2022/05/25 11:59:43;;;;;;;;;;;27.20;38.70;;;;;;5114880;28;1110;-44
2022/05/25 12:02:17;;;;;;;;;;;27.20;38.80;;;;;;5115510;28;1028;-46
2022/05/25 12:04:55;;;;;;;;;;;27.20;38.80;;;;;;5115502;28;1980;-43
2022/05/25 12:07:31;;;;;;;;;;;27.20;38.80;;;;;;5115196;28;928;-44
2022/05/25 12:10:05;;;;;;;;;;;27.30;38.90;;;;;;5114045;28;996;-44
2022/05/25 12:12:36;;;;;;;;;;;27.30;38.90;;;;;;5115804;28;953;-44
2022/05/25 12:15:05;;;;;;;;;;;27.30;38.80;;;;;;5114795;28;896;-46
2022/05/25 12:17:37;;;;;;;;;;;27.30;38.80;;;;;;5115926;28;1028;-44
2022/05/25 12:20:08;;;;;;;;;;;27.30;38.80;;;;;;5116475;28;1007;-46
2022/05/25 12:22:35;;;;;;;;;;;27.30;38.80;;;;;;5116898;28;952;-43
2022/05/25 12:25:04;;;;;;;;;;;27.20;38.70;;;;;;5114625;28;1901;-44
2022/05/25 12:27:34;;;;;;;;;;;27.20;38.70;;;;;;5116254;28;1003;-44
2022/05/25 12:30:04;;;;;;;;;;;27.30;38.80;;;;;;5115560;28;921;-44
2022/05/25 12:32:32;;;;;;;;;;;27.30;38.80;;;;;;5115777;28;1039;-44
2022/05/25 12:34:59;;;;;;;;;;;27.20;38.80;;;;;;5115847;28;1031;-44
2022/05/25 12:37:27;;;;;;;;;;;27.30;38.80;;;;;;5114201;28;1031;-44
2022/05/25 12:39:59;;;;;;;;;;;27.20;39.90;;;;;;5115635;28;1000;-44
2022/05/25 12:42:33;;;;;;;;;;;27.30;38.80;;;;;;5115794;28;869;-44
2022/05/25 12:50:43;;;;;;;;;;;27.30;38.90;;;;;;5113929;28;1009;-44
2022/05/25 12:53:31;;;;;;;;;;;27.30;38.80;;;;;;5112788;28;937;-44
2022/05/25 12:55:59;;;;;;;;;;;27.30;38.90;;;;;;5115124;28;1361;-44
2022/05/25 12:58:34;;;;;;;;;;;27.20;38.80;;;;;;5115353;28;1030;-44
2022/05/25 13:01:02;;;;;;;;;;;27.20;38.80;;;;;;5115001;28;1100;-44
2022/05/25 13:03:40;;;;;;;;;;;27.20;38.90;;;;;;5115012;28;1988;-45
2022/05/25 13:06:08;;;;;;;;;;;27.20;39.00;;;;;;5114163;28;924;-45
2022/05/25 13:09:08;;;;;;;;;;;27.20;39.00;;;;;;5114756;28;1004;-45
2022/05/25 13:11:45;;;;;;;;;;;27.30;39.00;;;;;;5114893;28;1028;-44
2022/05/25 13:14:31;;;;;;;;;;;27.30;39.00;;;;;;5115782;28;925;-44
2022/05/25 13:16:59;;;;;;;;;;;27.30;39.00;;;;;;5115942;28;1773;-44
2022/05/25 13:19:40;;;;;;;;;;;27.30;38.90;;;;;;5116579;28;917;-44
2022/05/25 13:22:15;;;;;;;;;;;27.30;38.80;;;;;;5112565;28;952;-44
2022/05/25 13:24:46;;;;;;;;;;;27.30;38.90;;;;;;5112626;28;1980;-44
2022/05/25 13:27:28;;;;;;;;;;;27.30;39.00;;;;;;5112432;28;1016;-44
2022/05/25 13:30:00;;;;;;;;;;;27.30;39.00;;;;;;5113825;28;940;-44
2022/05/25 13:32:39;;;;;;;;;;;27.30;38.80;;;;;;5113186;28;1012;-44
2022/05/25 13:35:15;;;;;;;;;;;27.30;38.90;;;;;;5114470;28;996;-44
2022/05/25 13:37:42;;;;;;;;;;;27.30;38.90;;;;;;5112776;28;1008;-44
2022/05/25 13:40:09;;;;;;;;;;;27.30;38.90;;;;;;5112101;28;989;-44
2022/05/25 13:42:38;;;;;;;;;;;27.30;38.90;;;;;;5113618;28;949;-44
2022/05/25 13:45:07;;;;;;;;;;;27.30;38.90;;;;;;5112275;28;1902;-44
2022/05/25 13:47:33;;;;;;;;;;;27.30;38.90;;;;;;5112204;28;1046;-44
2022/05/25 13:50:00;;;;;;;;;;;27.30;38.90;;;;;;5111917;28;928;-44
2022/05/25 13:52:30;;;;;;;;;;;27.30;38.90;;;;;;5112264;28;1020;-44
2022/05/25 13:54:57;;;;;;;;;;;27.40;38.90;;;;;;5112394;28;953;-45
2022/05/25 13:57:29;;;;;;;;;;;27.40;39.00;;;;;;5110107;28;940;-44
2022/05/25 13:59:57;;;;;;;;;;;27.30;38.90;;;;;;5113516;28;1244;-44
2022/05/25 14:02:25;;;;;;;;;;;27.30;38.80;;;;;;5118773;28;829;-44
2022/05/25 14:04:53;;;;;;;;;;;27.30;38.90;;;;;;5118787;28;1980;-44
2022/05/25 14:07:37;;;;;;;;;;;27.30;38.90;;;;;;5118057;28;948;-44
2022/05/25 14:12:51;;;;;;;;;;;27.40;38.90;;;;;;5118485;28;689;-44
2022/05/25 14:15:19;;;;;;;;;;;27.40;38.90;;;;;;5118317;28;972;-44
2022/05/25 14:17:54;;;;;;;;;;;27.40;38.70;;;;;;5118013;28;1007;-44
2022/05/25 14:20:22;;;;;;;;;;;27.50;38.80;;;;;;5117644;27;1852;-44
2022/05/25 14:22:50;;;;;;;;;;;27.50;38.80;;;;;;5117639;28;1048;-44
2022/05/25 14:25:19;;;;;;;;;;;27.50;38.70;;;;;;5117383;28;1905;-44
2022/05/25 14:27:47;;;;;;;;;;;27.50;38.70;;;;;;5116933;28;1020;-44
2022/05/25 14:30:17;;;;;;;;;;;27.50;38.70;;;;;;5115524;28;1013;-44
2022/05/25 14:32:56;;;;;;;;;;;27.50;38.80;;;;;;5116541;28;1013;-44
2022/05/25 14:35:24;;;;;;;;;;;27.50;38.70;;;;;;5119101;28;980;-44
2022/05/25 14:37:52;;;;;;;;;;;27.50;38.70;;;;;;5119391;28;996;-44
2022/05/25 14:40:20;;;;;;;;;;;27.50;38.60;;;;;;5118983;28;1005;-44
2022/05/25 14:42:51;;;;;;;;;;;27.60;38.70;;;;;;5119403;28;1018;-46
2022/05/25 14:45:18;;;;;;;;;;;27.60;38.70;;;;;;5118283;28;1914;-44
2022/05/25 14:47:45;;;;;;;;;;;27.60;39.80;;;;;;5117706;28;945;-44
2022/05/25 14:50:18;;;;;;;;;;;27.60;38.70;;;;;;5117596;28;933;-46
2022/05/25 14:52:46;;;;;;;;;;;27.60;38.70;;;;;;5117183;28;953;-44
2022/05/25 14:55:22;;;;;;;;;;;27.60;38.70;;;;;;5116689;28;992;-44
2022/05/25 14:57:59;;;;;;;;;;;27.60;38.70;;;;;;5118178;28;964;-44
2022/05/25 15:00:26;;;;;;;;;;;27.60;38.60;;;;;;5116408;28;1101;-44
2022/05/25 15:02:58;;;;;;;;;;;27.60;38.60;;;;;;5118150;28;885;-44
2022/05/25 15:05:26;;;;;;;;;;;27.60;38.50;;;;;;5117627;28;1942;-44
2022/05/25 15:07:54;;;;;;;;;;;27.70;38.60;;;;;;5118391;28;1089;-44
2022/05/25 15:10:29;;;;;;;;;;;27.70;38.50;;;;;;5118212;28;863;-44
2022/05/25 15:12:55;;;;;;;;;;;27.70;38.50;;;;;;5116454;28;1018;-44
2022/05/25 15:18:33;;;;;;;;;;;27.70;38.60;;;;;;5118450;28;910;-46
2022/05/25 15:21:01;;;;;;;;;;;27.70;38.50;;;;;;5118212;28;952;-44
2022/05/25 15:23:30;;;;;;;;;;;27.70;38.50;;;;;;5117603;28;888;-45